sensor_id;sensor_type;location;lat;lon;timestamp;P1;durP1;ratioP1;P2;durP2;ratioP2
73632;SDS011;61927;50.080;14.418;2023-03-04T00:01:53;24.23;;;13.20;;
73632;SDS011;61927;50.080;14.418;2023-03-04T00:04:19;20.77;;;12.48;;
73632;SDS011;61927;50.080;14.418;2023-03-04T00:06:44;27.42;;;12.70;;
73632;SDS011;61927;50.080;14.418;2023-03-04T00:09:10;22.42;;;11.70;;
73632;SDS011;61927;50.080;14.418;2023-03-04T00:11:36;23.63;;;11.68;;
73632;SDS011;61927;50.080;14.418;2023-03-04T00:14:01;22.77;;;13.15;;
73632;SDS011;61927;50.080;14.418;2023-03-04T00:16:27;23.10;;;12.55;;
73632;SDS011;61927;50.080;14.418;2023-03-04T00:18:53;28.92;;;14.02;;
73632;SDS011;61927;50.080;14.418;2023-03-04T00:21:20;23.55;;;13.20;;
73632;SDS011;61927;50.080;14.418;2023-03-04T00:23:46;29.02;;;13.20;;
73632;SDS011;61927;50.080;14.418;2023-03-04T00:26:12;24.67;;;13.75;;
73632;SDS011;61927;50.080;14.418;2023-03-04T00:28:38;28.67;;;13.95;;
73632;SDS011;61927;50.080;14.418;2023-03-04T00:31:04;27.50;;;14.60;;
73632;SDS011;61927;50.080;14.418;2023-03-04T00:33:30;25.15;;;15.02;;
73632;SDS011;61927;50.080;14.418;2023-03-04T00:35:56;27.50;;;14.45;;
73632;SDS011;61927;50.080;14.418;2023-03-04T00:38:22;33.20;;;15.27;;
73632;SDS011;61927;50.080;14.418;2023-03-04T00:40:47;36.03;;;16.13;;
73632;SDS011;61927;50.080;14.418;2023-03-04T00:43:13;29.95;;;17.13;;
73632;SDS011;61927;50.080;14.418;2023-03-04T00:45:39;28.25;;;15.65;;
73632;SDS011;61927;50.080;14.418;2023-03-04T00:48:04;25.33;;;13.85;;
73632;SDS011;61927;50.080;14.418;2023-03-04T00:50:30;26.58;;;13.82;;
73632;SDS011;61927;50.080;14.418;2023-03-04T00:52:56;25.33;;;14.30;;
73632;SDS011;61927;50.080;14.418;2023-03-04T00:55:22;30.58;;;14.27;;
73632;SDS011;61927;50.080;14.418;2023-03-04T00:57:47;31.50;;;15.32;;
73632;SDS011;61927;50.080;14.418;2023-03-04T01:00:13;31.33;;;16.42;;
73632;SDS011;61927;50.080;14.418;2023-03-04T01:02:39;29.50;;;15.18;;
73632;SDS011;61927;50.080;14.418;2023-03-04T01:05:05;27.63;;;15.68;;
73632;SDS011;61927;50.080;14.418;2023-03-04T01:07:31;32.42;;;15.95;;
73632;SDS011;61927;50.080;14.418;2023-03-04T01:09:57;35.72;;;16.85;;
73632;SDS011;61927;50.080;14.418;2023-03-04T01:12:22;30.55;;;16.20;;
73632;SDS011;61927;50.080;14.418;2023-03-04T01:14:48;37.83;;;19.25;;
73632;SDS011;61927;50.080;14.418;2023-03-04T01:17:14;32.58;;;17.33;;
73632;SDS011;61927;50.080;14.418;2023-03-04T01:19:40;32.42;;;16.45;;
73632;SDS011;61927;50.080;14.418;2023-03-04T01:22:05;35.30;;;17.05;;
73632;SDS011;61927;50.080;14.418;2023-03-04T01:24:31;33.80;;;16.42;;
73632;SDS011;61927;50.080;14.418;2023-03-04T01:26:57;32.80;;;17.15;;
73632;SDS011;61927;50.080;14.418;2023-03-04T01:29:22;37.00;;;17.35;;
73632;SDS011;61927;50.080;14.418;2023-03-04T01:31:48;37.08;;;18.25;;
73632;SDS011;61927;50.080;14.418;2023-03-04T01:34:13;33.65;;;17.33;;
73632;SDS011;61927;50.080;14.418;2023-03-04T01:36:39;38.67;;;21.25;;
73632;SDS011;61927;50.080;14.418;2023-03-04T01:39:05;33.60;;;17.17;;
73632;SDS011;61927;50.080;14.418;2023-03-04T01:41:30;49.50;;;26.10;;
73632;SDS011;61927;50.080;14.418;2023-03-04T01:43:57;81.50;;;45.33;;
73632;SDS011;61927;50.080;14.418;2023-03-04T01:46:27;36.00;;;17.38;;
73632;SDS011;61927;50.080;14.418;2023-03-04T01:48:54;33.47;;;16.50;;
73632;SDS011;61927;50.080;14.418;2023-03-04T01:51:20;30.05;;;17.02;;
73632;SDS011;61927;50.080;14.418;2023-03-04T01:53:47;30.58;;;15.95;;
73632;SDS011;61927;50.080;14.418;2023-03-04T01:56:23;37.78;;;15.50;;
73632;SDS011;61927;50.080;14.418;2023-03-04T02:01:37;31.95;;;15.68;;
73632;SDS011;61927;50.080;14.418;2023-03-04T02:04:04;30.60;;;15.50;;
73632;SDS011;61927;50.080;14.418;2023-03-04T02:06:30;29.23;;;14.95;;
73632;SDS011;61927;50.080;14.418;2023-03-04T02:08:56;33.88;;;15.50;;
73632;SDS011;61927;50.080;14.418;2023-03-04T02:11:22;30.30;;;15.73;;
73632;SDS011;61927;50.080;14.418;2023-03-04T02:13:48;29.17;;;16.02;;
73632;SDS011;61927;50.080;14.418;2023-03-04T02:16:13;37.67;;;16.70;;
73632;SDS011;61927;50.080;14.418;2023-03-04T02:18:39;36.03;;;17.55;;
73632;SDS011;61927;50.080;14.418;2023-03-04T02:21:11;36.42;;;17.92;;
73632;SDS011;61927;50.080;14.418;2023-03-04T02:26:27;31.77;;;17.05;;
73632;SDS011;61927;50.080;14.418;2023-03-04T02:28:55;36.20;;;17.25;;
73632;SDS011;61927;50.080;14.418;2023-03-04T02:31:38;32.42;;;17.65;;
73632;SDS011;61927;50.080;14.418;2023-03-04T02:34:11;33.35;;;17.77;;
73632;SDS011;61927;50.080;14.418;2023-03-04T02:36:39;37.45;;;17.67;;
73632;SDS011;61927;50.080;14.418;2023-03-04T02:39:19;38.88;;;18.50;;
73632;SDS011;61927;50.080;14.418;2023-03-04T02:41:46;41.72;;;18.58;;
73632;SDS011;61927;50.080;14.418;2023-03-04T02:46:51;38.40;;;18.85;;
73632;SDS011;61927;50.080;14.418;2023-03-04T02:49:18;34.88;;;17.92;;
73632;SDS011;61927;50.080;14.418;2023-03-04T02:51:43;37.92;;;18.23;;
73632;SDS011;61927;50.080;14.418;2023-03-04T02:54:16;37.90;;;18.80;;
73632;SDS011;61927;50.080;14.418;2023-03-04T02:56:44;34.83;;;18.33;;
73632;SDS011;61927;50.080;14.418;2023-03-04T02:59:13;40.33;;;18.92;;
73632;SDS011;61927;50.080;14.418;2023-03-04T03:01:39;38.85;;;19.25;;
73632;SDS011;61927;50.080;14.418;2023-03-04T03:04:05;39.47;;;18.42;;
73632;SDS011;61927;50.080;14.418;2023-03-04T03:06:30;37.58;;;18.88;;
73632;SDS011;61927;50.080;14.418;2023-03-04T03:08:56;36.22;;;18.90;;
73632;SDS011;61927;50.080;14.418;2023-03-04T03:11:22;39.35;;;19.38;;
73632;SDS011;61927;50.080;14.418;2023-03-04T03:13:47;38.60;;;19.10;;
73632;SDS011;61927;50.080;14.418;2023-03-04T03:16:13;38.08;;;19.55;;
73632;SDS011;61927;50.080;14.418;2023-03-04T03:18:39;43.35;;;20.77;;
73632;SDS011;61927;50.080;14.418;2023-03-04T03:21:05;43.67;;;21.92;;
73632;SDS011;61927;50.080;14.418;2023-03-04T03:23:31;42.50;;;20.77;;
73632;SDS011;61927;50.080;14.418;2023-03-04T03:25:57;39.00;;;20.85;;
73632;SDS011;61927;50.080;14.418;2023-03-04T03:28:23;37.30;;;19.00;;
73632;SDS011;61927;50.080;14.418;2023-03-04T03:30:48;38.05;;;19.40;;
73632;SDS011;61927;50.080;14.418;2023-03-04T03:33:14;37.63;;;19.17;;
73632;SDS011;61927;50.080;14.418;2023-03-04T03:35:39;36.30;;;18.83;;
73632;SDS011;61927;50.080;14.418;2023-03-04T03:38:05;35.83;;;19.67;;
73632;SDS011;61927;50.080;14.418;2023-03-04T03:40:31;36.10;;;18.65;;
73632;SDS011;61927;50.080;14.418;2023-03-04T03:42:57;35.83;;;19.15;;
73632;SDS011;61927;50.080;14.418;2023-03-04T03:45:22;37.30;;;19.98;;
73632;SDS011;61927;50.080;14.418;2023-03-04T03:47:48;36.75;;;18.50;;
73632;SDS011;61927;50.080;14.418;2023-03-04T03:50:13;44.42;;;20.02;;
73632;SDS011;61927;50.080;14.418;2023-03-04T03:52:39;41.92;;;20.08;;
73632;SDS011;61927;50.080;14.418;2023-03-04T03:55:05;42.72;;;19.95;;
73632;SDS011;61927;50.080;14.418;2023-03-04T03:57:31;41.80;;;19.60;;
73632;SDS011;61927;50.080;14.418;2023-03-04T03:59:56;40.05;;;19.83;;
73632;SDS011;61927;50.080;14.418;2023-03-04T04:02:22;42.60;;;19.38;;
73632;SDS011;61927;50.080;14.418;2023-03-04T04:04:47;46.45;;;19.63;;
73632;SDS011;61927;50.080;14.418;2023-03-04T04:07:13;36.47;;;18.95;;
73632;SDS011;61927;50.080;14.418;2023-03-04T04:09:39;39.53;;;20.40;;
73632;SDS011;61927;50.080;14.418;2023-03-04T04:12:05;37.90;;;18.23;;
73632;SDS011;61927;50.080;14.418;2023-03-04T04:14:31;43.22;;;20.55;;
73632;SDS011;61927;50.080;14.418;2023-03-04T04:16:57;35.25;;;18.58;;
73632;SDS011;61927;50.080;14.418;2023-03-04T04:19:23;36.08;;;19.25;;
73632;SDS011;61927;50.080;14.418;2023-03-04T04:21:49;40.53;;;19.58;;
73632;SDS011;61927;50.080;14.418;2023-03-04T04:24:14;40.15;;;19.40;;
73632;SDS011;61927;50.080;14.418;2023-03-04T04:26:40;38.35;;;19.90;;
73632;SDS011;61927;50.080;14.418;2023-03-04T04:29:06;32.60;;;17.80;;
73632;SDS011;61927;50.080;14.418;2023-03-04T04:31:32;38.15;;;18.73;;
73632;SDS011;61927;50.080;14.418;2023-03-04T04:33:58;40.83;;;19.17;;
73632;SDS011;61927;50.080;14.418;2023-03-04T04:36:24;32.72;;;17.23;;
73632;SDS011;61927;50.080;14.418;2023-03-04T04:38:51;36.63;;;17.13;;
73632;SDS011;61927;50.080;14.418;2023-03-04T04:41:18;31.23;;;16.10;;
73632;SDS011;61927;50.080;14.418;2023-03-04T04:43:46;37.40;;;16.00;;
73632;SDS011;61927;50.080;14.418;2023-03-04T04:46:13;34.30;;;16.92;;
73632;SDS011;61927;50.080;14.418;2023-03-04T04:48:39;37.33;;;17.10;;
73632;SDS011;61927;50.080;14.418;2023-03-04T04:51:05;35.25;;;16.50;;
73632;SDS011;61927;50.080;14.418;2023-03-04T04:53:30;35.28;;;17.15;;
73632;SDS011;61927;50.080;14.418;2023-03-04T04:55:56;41.33;;;18.45;;
73632;SDS011;61927;50.080;14.418;2023-03-04T04:58:22;32.60;;;17.15;;
73632;SDS011;61927;50.080;14.418;2023-03-04T05:00:47;41.72;;;19.23;;
73632;SDS011;61927;50.080;14.418;2023-03-04T05:03:13;40.47;;;18.63;;
73632;SDS011;61927;50.080;14.418;2023-03-04T05:05:38;34.30;;;17.13;;
73632;SDS011;61927;50.080;14.418;2023-03-04T05:08:04;34.60;;;17.17;;
73632;SDS011;61927;50.080;14.418;2023-03-04T05:10:30;32.50;;;17.40;;
73632;SDS011;61927;50.080;14.418;2023-03-04T05:12:58;33.72;;;16.23;;
73632;SDS011;61927;50.080;14.418;2023-03-04T05:15:24;30.20;;;16.27;;
73632;SDS011;61927;50.080;14.418;2023-03-04T05:17:49;40.60;;;18.20;;
73632;SDS011;61927;50.080;14.418;2023-03-04T05:20:15;37.22;;;18.20;;
73632;SDS011;61927;50.080;14.418;2023-03-04T05:22:41;36.85;;;18.27;;
73632;SDS011;61927;50.080;14.418;2023-03-04T05:25:07;38.38;;;17.73;;
73632;SDS011;61927;50.080;14.418;2023-03-04T05:27:32;39.97;;;17.75;;
73632;SDS011;61927;50.080;14.418;2023-03-04T05:29:58;35.03;;;17.83;;
73632;SDS011;61927;50.080;14.418;2023-03-04T05:32:24;32.83;;;17.52;;
73632;SDS011;61927;50.080;14.418;2023-03-04T05:34:49;37.50;;;16.65;;
73632;SDS011;61927;50.080;14.418;2023-03-04T05:37:15;33.17;;;16.65;;
73632;SDS011;61927;50.080;14.418;2023-03-04T05:39:41;33.67;;;16.90;;
73632;SDS011;61927;50.080;14.418;2023-03-04T05:42:06;36.25;;;17.60;;
73632;SDS011;61927;50.080;14.418;2023-03-04T05:44:32;38.22;;;18.00;;
73632;SDS011;61927;50.080;14.418;2023-03-04T05:46:57;35.15;;;17.45;;
73632;SDS011;61927;50.080;14.418;2023-03-04T05:49:23;38.55;;;17.60;;
73632;SDS011;61927;50.080;14.418;2023-03-04T05:51:48;38.17;;;18.08;;
73632;SDS011;61927;50.080;14.418;2023-03-04T05:54:14;33.92;;;15.60;;
73632;SDS011;61927;50.080;14.418;2023-03-04T05:56:40;40.05;;;17.65;;
73632;SDS011;61927;50.080;14.418;2023-03-04T05:59:06;33.22;;;17.38;;
73632;SDS011;61927;50.080;14.418;2023-03-04T06:01:31;33.85;;;16.98;;
73632;SDS011;61927;50.080;14.418;2023-03-04T06:03:57;33.60;;;16.77;;
73632;SDS011;61927;50.080;14.418;2023-03-04T06:06:22;38.35;;;18.30;;
73632;SDS011;61927;50.080;14.418;2023-03-04T06:08:48;30.52;;;17.13;;
73632;SDS011;61927;50.080;14.418;2023-03-04T06:11:14;39.17;;;17.70;;
73632;SDS011;61927;50.080;14.418;2023-03-04T06:13:39;29.77;;;16.73;;
73632;SDS011;61927;50.080;14.418;2023-03-04T06:16:05;38.30;;;18.20;;
73632;SDS011;61927;50.080;14.418;2023-03-04T06:18:31;41.28;;;17.60;;
73632;SDS011;61927;50.080;14.418;2023-03-04T06:20:57;34.63;;;17.33;;
73632;SDS011;61927;50.080;14.418;2023-03-04T06:23:24;33.05;;;16.88;;
73632;SDS011;61927;50.080;14.418;2023-03-04T06:25:54;36.65;;;16.92;;
73632;SDS011;61927;50.080;14.418;2023-03-04T06:28:21;32.92;;;17.65;;
73632;SDS011;61927;50.080;14.418;2023-03-04T06:30:47;28.88;;;16.92;;
73632;SDS011;61927;50.080;14.418;2023-03-04T06:33:13;34.83;;;16.73;;
73632;SDS011;61927;50.080;14.418;2023-03-04T06:35:38;35.05;;;17.95;;
73632;SDS011;61927;50.080;14.418;2023-03-04T06:38:04;32.55;;;17.17;;
73632;SDS011;61927;50.080;14.418;2023-03-04T06:40:29;32.58;;;15.75;;
73632;SDS011;61927;50.080;14.418;2023-03-04T06:42:55;31.10;;;15.82;;
73632;SDS011;61927;50.080;14.418;2023-03-04T06:45:21;28.80;;;16.10;;
73632;SDS011;61927;50.080;14.418;2023-03-04T06:47:46;35.00;;;16.08;;
73632;SDS011;61927;50.080;14.418;2023-03-04T06:50:12;30.63;;;16.13;;
73632;SDS011;61927;50.080;14.418;2023-03-04T06:52:38;34.88;;;15.38;;
73632;SDS011;61927;50.080;14.418;2023-03-04T06:55:04;32.85;;;16.48;;
73632;SDS011;61927;50.080;14.418;2023-03-04T06:57:31;36.13;;;15.90;;
73632;SDS011;61927;50.080;14.418;2023-03-04T06:59:56;34.95;;;16.80;;
73632;SDS011;61927;50.080;14.418;2023-03-04T07:02:22;32.22;;;16.20;;
73632;SDS011;61927;50.080;14.418;2023-03-04T07:04:48;28.63;;;15.65;;
73632;SDS011;61927;50.080;14.418;2023-03-04T07:07:14;26.98;;;15.05;;
73632;SDS011;61927;50.080;14.418;2023-03-04T07:09:39;35.53;;;16.23;;
73632;SDS011;61927;50.080;14.418;2023-03-04T07:12:05;31.58;;;15.63;;
73632;SDS011;61927;50.080;14.418;2023-03-04T07:14:31;32.83;;;15.30;;
73632;SDS011;61927;50.080;14.418;2023-03-04T07:16:57;26.42;;;14.35;;
73632;SDS011;61927;50.080;14.418;2023-03-04T07:19:22;28.48;;;15.85;;
73632;SDS011;61927;50.080;14.418;2023-03-04T07:21:48;34.15;;;15.88;;
73632;SDS011;61927;50.080;14.418;2023-03-04T07:24:13;31.17;;;14.90;;
73632;SDS011;61927;50.080;14.418;2023-03-04T07:26:40;32.13;;;15.93;;
73632;SDS011;61927;50.080;14.418;2023-03-04T07:29:05;29.30;;;14.95;;
73632;SDS011;61927;50.080;14.418;2023-03-04T07:31:32;29.55;;;15.65;;
73632;SDS011;61927;50.080;14.418;2023-03-04T07:34:00;34.03;;;15.93;;
73632;SDS011;61927;50.080;14.418;2023-03-04T07:36:27;33.20;;;16.05;;
73632;SDS011;61927;50.080;14.418;2023-03-04T07:38:53;27.58;;;15.00;;
73632;SDS011;61927;50.080;14.418;2023-03-04T07:41:20;27.55;;;14.90;;
73632;SDS011;61927;50.080;14.418;2023-03-04T07:43:47;34.42;;;15.82;;
73632;SDS011;61927;50.080;14.418;2023-03-04T07:46:13;34.95;;;16.42;;
73632;SDS011;61927;50.080;14.418;2023-03-04T07:48:38;37.97;;;15.25;;
73632;SDS011;61927;50.080;14.418;2023-03-04T07:53:34;25.65;;;13.45;;
73632;SDS011;61927;50.080;14.418;2023-03-04T07:56:01;27.70;;;11.15;;
73632;SDS011;61927;50.080;14.418;2023-03-04T07:58:27;23.65;;;11.73;;
73632;SDS011;61927;50.080;14.418;2023-03-04T08:00:53;26.95;;;11.25;;
73632;SDS011;61927;50.080;14.418;2023-03-04T08:03:18;21.65;;;11.07;;
73632;SDS011;61927;50.080;14.418;2023-03-04T08:05:44;21.02;;;10.50;;
73632;SDS011;61927;50.080;14.418;2023-03-04T08:08:10;19.73;;;10.70;;
73632;SDS011;61927;50.080;14.418;2023-03-04T08:10:36;17.65;;;10.00;;
73632;SDS011;61927;50.080;14.418;2023-03-04T08:13:04;19.33;;;10.10;;
73632;SDS011;61927;50.080;14.418;2023-03-04T08:15:30;22.55;;;9.85;;
73632;SDS011;61927;50.080;14.418;2023-03-04T08:17:57;17.13;;;9.73;;
73632;SDS011;61927;50.080;14.418;2023-03-04T08:20:23;20.95;;;9.27;;
73632;SDS011;61927;50.080;14.418;2023-03-04T08:22:49;20.27;;;9.45;;
73632;SDS011;61927;50.080;14.418;2023-03-04T08:25:15;17.58;;;9.90;;
73632;SDS011;61927;50.080;14.418;2023-03-04T08:27:41;20.63;;;10.88;;
73632;SDS011;61927;50.080;14.418;2023-03-04T08:30:07;20.33;;;10.27;;
73632;SDS011;61927;50.080;14.418;2023-03-04T08:32:33;17.08;;;10.18;;
73632;SDS011;61927;50.080;14.418;2023-03-04T08:34:59;15.15;;;9.23;;
73632;SDS011;61927;50.080;14.418;2023-03-04T08:37:27;15.48;;;9.50;;
73632;SDS011;61927;50.080;14.418;2023-03-04T08:39:53;20.67;;;9.57;;
73632;SDS011;61927;50.080;14.418;2023-03-04T08:42:19;20.23;;;10.02;;
73632;SDS011;61927;50.080;14.418;2023-03-04T08:44:45;17.38;;;10.18;;
73632;SDS011;61927;50.080;14.418;2023-03-04T08:47:10;19.75;;;10.32;;
73632;SDS011;61927;50.080;14.418;2023-03-04T08:49:36;17.52;;;10.63;;
73632;SDS011;61927;50.080;14.418;2023-03-04T08:52:02;19.75;;;11.00;;
73632;SDS011;61927;50.080;14.418;2023-03-04T08:54:28;18.90;;;10.50;;
73632;SDS011;61927;50.080;14.418;2023-03-04T08:56:53;20.65;;;10.32;;
73632;SDS011;61927;50.080;14.418;2023-03-04T08:59:20;20.60;;;10.65;;
73632;SDS011;61927;50.080;14.418;2023-03-04T09:01:45;16.17;;;10.32;;
73632;SDS011;61927;50.080;14.418;2023-03-04T09:04:11;20.88;;;9.85;;
73632;SDS011;61927;50.080;14.418;2023-03-04T09:06:36;20.48;;;10.27;;
73632;SDS011;61927;50.080;14.418;2023-03-04T09:09:02;16.95;;;10.50;;
73632;SDS011;61927;50.080;14.418;2023-03-04T09:11:28;19.00;;;10.80;;
73632;SDS011;61927;50.080;14.418;2023-03-04T09:13:54;16.05;;;10.23;;
73632;SDS011;61927;50.080;14.418;2023-03-04T09:16:19;17.13;;;10.23;;
73632;SDS011;61927;50.080;14.418;2023-03-04T09:18:45;18.50;;;10.32;;
73632;SDS011;61927;50.080;14.418;2023-03-04T09:21:11;19.85;;;10.90;;
73632;SDS011;61927;50.080;14.418;2023-03-04T09:23:37;17.67;;;9.43;;
73632;SDS011;61927;50.080;14.418;2023-03-04T09:26:12;15.73;;;9.40;;
73632;SDS011;61927;50.080;14.418;2023-03-04T09:28:49;16.42;;;8.48;;
73632;SDS011;61927;50.080;14.418;2023-03-04T09:31:16;13.77;;;8.38;;
73632;SDS011;61927;50.080;14.418;2023-03-04T09:33:41;19.27;;;8.80;;
73632;SDS011;61927;50.080;14.418;2023-03-04T09:36:10;13.25;;;8.43;;
73632;SDS011;61927;50.080;14.418;2023-03-04T09:38:38;18.58;;;8.85;;
73632;SDS011;61927;50.080;14.418;2023-03-04T09:41:23;15.30;;;7.72;;
73632;SDS011;61927;50.080;14.418;2023-03-04T09:43:52;18.67;;;8.30;;
73632;SDS011;61927;50.080;14.418;2023-03-04T09:46:37;15.13;;;8.27;;
73632;SDS011;61927;50.080;14.418;2023-03-04T09:49:05;13.35;;;8.20;;
73632;SDS011;61927;50.080;14.418;2023-03-04T09:51:39;23.80;;;8.15;;
73632;SDS011;61927;50.080;14.418;2023-03-04T09:54:14;14.38;;;8.32;;
73632;SDS011;61927;50.080;14.418;2023-03-04T09:56:50;15.65;;;8.15;;
73632;SDS011;61927;50.080;14.418;2023-03-04T09:59:31;12.30;;;7.82;;
73632;SDS011;61927;50.080;14.418;2023-03-04T10:02:17;16.50;;;8.05;;
73632;SDS011;61927;50.080;14.418;2023-03-04T10:04:49;20.02;;;8.30;;
73632;SDS011;61927;50.080;14.418;2023-03-04T10:07:20;13.73;;;8.18;;
73632;SDS011;61927;50.080;14.418;2023-03-04T10:12:29;21.33;;;8.35;;
73632;SDS011;61927;50.080;14.418;2023-03-04T10:17:35;14.73;;;8.13;;
73632;SDS011;61927;50.080;14.418;2023-03-04T10:22:51;19.55;;;8.90;;
73632;SDS011;61927;50.080;14.418;2023-03-04T10:25:23;15.15;;;8.73;;
73632;SDS011;61927;50.080;14.418;2023-03-04T10:27:54;16.40;;;8.93;;
73632;SDS011;61927;50.080;14.418;2023-03-04T10:30:26;20.00;;;9.98;;
73632;SDS011;61927;50.080;14.418;2023-03-04T10:32:54;22.77;;;10.70;;
73632;SDS011;61927;50.080;14.418;2023-03-04T10:35:20;17.85;;;9.50;;
73632;SDS011;61927;50.080;14.418;2023-03-04T10:37:50;18.40;;;10.05;;
73632;SDS011;61927;50.080;14.418;2023-03-04T10:40:25;17.33;;;8.52;;
73632;SDS011;61927;50.080;14.418;2023-03-04T10:42:51;19.58;;;9.02;;
73632;SDS011;61927;50.080;14.418;2023-03-04T10:45:22;15.13;;;8.43;;
73632;SDS011;61927;50.080;14.418;2023-03-04T10:47:51;14.60;;;8.30;;
73632;SDS011;61927;50.080;14.418;2023-03-04T10:50:20;20.63;;;8.65;;
73632;SDS011;61927;50.080;14.418;2023-03-04T10:52:51;15.98;;;8.30;;
73632;SDS011;61927;50.080;14.418;2023-03-04T10:55:29;19.38;;;8.43;;
73632;SDS011;61927;50.080;14.418;2023-03-04T10:58:10;14.73;;;7.85;;
73632;SDS011;61927;50.080;14.418;2023-03-04T11:00:39;18.08;;;9.27;;
73632;SDS011;61927;50.080;14.418;2023-03-04T11:08:53;24.00;;;11.25;;
73632;SDS011;61927;50.080;14.418;2023-03-04T11:11:21;16.67;;;8.43;;
73632;SDS011;61927;50.080;14.418;2023-03-04T11:14:07;17.35;;;7.93;;
73632;SDS011;61927;50.080;14.418;2023-03-04T11:16:56;13.32;;;7.43;;
73632;SDS011;61927;50.080;14.418;2023-03-04T11:19:30;14.10;;;7.93;;
73632;SDS011;61927;50.080;14.418;2023-03-04T11:22:01;15.75;;;8.10;;
73632;SDS011;61927;50.080;14.418;2023-03-04T11:24:27;10.60;;;7.18;;
73632;SDS011;61927;50.080;14.418;2023-03-04T11:26:58;13.02;;;7.43;;
73632;SDS011;61927;50.080;14.418;2023-03-04T11:29:30;12.02;;;7.88;;
73632;SDS011;61927;50.080;14.418;2023-03-04T11:32:06;10.85;;;7.07;;
73632;SDS011;61927;50.080;14.418;2023-03-04T11:34:36;15.43;;;7.60;;
73632;SDS011;61927;50.080;14.418;2023-03-04T11:37:11;13.40;;;8.02;;
73632;SDS011;61927;50.080;14.418;2023-03-04T11:39:49;12.60;;;8.38;;
73632;SDS011;61927;50.080;14.418;2023-03-04T11:44:53;14.35;;;7.93;;
73632;SDS011;61927;50.080;14.418;2023-03-04T11:50:03;11.82;;;7.88;;
73632;SDS011;61927;50.080;14.418;2023-03-04T11:55:28;16.88;;;9.25;;
73632;SDS011;61927;50.080;14.418;2023-03-04T11:58:11;15.68;;;8.05;;
73632;SDS011;61927;50.080;14.418;2023-03-04T12:00:54;14.45;;;6.97;;
73632;SDS011;61927;50.080;14.418;2023-03-04T12:04:01;14.52;;;8.52;;
73632;SDS011;61927;50.080;14.418;2023-03-04T12:15:06;21.48;;;8.15;;
73632;SDS011;61927;50.080;14.418;2023-03-04T12:44:14;13.45;;;6.63;;
73632;SDS011;61927;50.080;14.418;2023-03-04T12:54:36;13.15;;;6.25;;
73632;SDS011;61927;50.080;14.418;2023-03-04T12:57:08;11.50;;;6.13;;
73632;SDS011;61927;50.080;14.418;2023-03-04T12:59:39;12.65;;;6.53;;
73632;SDS011;61927;50.080;14.418;2023-03-04T13:10:40;9.38;;;4.68;;
73632;SDS011;61927;50.080;14.418;2023-03-04T13:13:32;14.82;;;5.22;;
73632;SDS011;61927;50.080;14.418;2023-03-04T13:18:45;11.27;;;5.68;;
73632;SDS011;61927;50.080;14.418;2023-03-04T13:21:24;8.18;;;4.15;;
73632;SDS011;61927;50.080;14.418;2023-03-04T13:23:53;3.10;;;2.85;;
73632;SDS011;61927;50.080;14.418;2023-03-04T13:26:29;4.45;;;2.92;;
73632;SDS011;61927;50.080;14.418;2023-03-04T13:31:59;2.78;;;2.00;;
73632;SDS011;61927;50.080;14.418;2023-03-04T13:37:27;6.60;;;2.25;;
73632;SDS011;61927;50.080;14.418;2023-03-04T13:42:51;3.30;;;2.30;;
73632;SDS011;61927;50.080;14.418;2023-03-04T13:45:31;13.63;;;2.55;;
73632;SDS011;61927;50.080;14.418;2023-03-04T13:47:57;2.28;;;1.90;;
73632;SDS011;61927;50.080;14.418;2023-03-04T13:50:33;7.68;;;1.83;;
73632;SDS011;61927;50.080;14.418;2023-03-04T13:53:25;2.97;;;1.88;;
73632;SDS011;61927;50.080;14.418;2023-03-04T13:56:06;3.53;;;2.35;;
73632;SDS011;61927;50.080;14.418;2023-03-04T13:58:36;4.10;;;3.20;;
73632;SDS011;61927;50.080;14.418;2023-03-04T14:01:03;5.43;;;2.17;;
73632;SDS011;61927;50.080;14.418;2023-03-04T14:03:31;4.22;;;2.63;;
73632;SDS011;61927;50.080;14.418;2023-03-04T14:08:44;8.00;;;2.70;;
73632;SDS011;61927;50.080;14.418;2023-03-04T14:11:15;3.42;;;2.20;;
73632;SDS011;61927;50.080;14.418;2023-03-04T14:13:46;5.63;;;2.10;;
73632;SDS011;61927;50.080;14.418;2023-03-04T14:16:11;4.43;;;1.83;;
73632;SDS011;61927;50.080;14.418;2023-03-04T14:18:44;3.63;;;1.90;;
73632;SDS011;61927;50.080;14.418;2023-03-04T14:21:12;2.63;;;1.58;;
73632;SDS011;61927;50.080;14.418;2023-03-04T14:23:39;3.85;;;2.60;;
73632;SDS011;61927;50.080;14.418;2023-03-04T14:26:07;2.63;;;1.70;;
73632;SDS011;61927;50.080;14.418;2023-03-04T14:29:17;3.83;;;1.48;;
73632;SDS011;61927;50.080;14.418;2023-03-04T14:31:29;3.33;;;2.00;;
73632;SDS011;61927;50.080;14.418;2023-03-04T14:33:58;1.60;;;1.50;;
73632;SDS011;61927;50.080;14.418;2023-03-04T14:36:30;2.33;;;1.50;;
73632;SDS011;61927;50.080;14.418;2023-03-04T14:39:00;4.45;;;1.90;;
73632;SDS011;61927;50.080;14.418;2023-03-04T14:41:33;3.53;;;1.60;;
73632;SDS011;61927;50.080;14.418;2023-03-04T14:46:30;2.53;;;1.50;;
73632;SDS011;61927;50.080;14.418;2023-03-04T14:49:01;4.70;;;1.95;;
73632;SDS011;61927;50.080;14.418;2023-03-04T14:54:22;3.90;;;1.40;;
73632;SDS011;61927;50.080;14.418;2023-03-04T14:56:52;3.33;;;1.73;;
73632;SDS011;61927;50.080;14.418;2023-03-04T14:59:21;1.45;;;1.10;;
73632;SDS011;61927;50.080;14.418;2023-03-04T15:01:52;3.33;;;1.40;;
73632;SDS011;61927;50.080;14.418;2023-03-04T15:04:18;1.83;;;1.30;;
73632;SDS011;61927;50.080;14.418;2023-03-04T15:06:48;7.32;;;1.48;;
73632;SDS011;61927;50.080;14.418;2023-03-04T15:09:22;1.67;;;1.40;;
73632;SDS011;61927;50.080;14.418;2023-03-04T15:11:51;2.63;;;1.60;;
73632;SDS011;61927;50.080;14.418;2023-03-04T15:20:17;2.25;;;1.60;;
73632;SDS011;61927;50.080;14.418;2023-03-04T15:25:14;6.80;;;1.80;;
73632;SDS011;61927;50.080;14.418;2023-03-04T15:27:40;7.88;;;2.30;;
73632;SDS011;61927;50.080;14.418;2023-03-04T15:30:15;3.85;;;1.70;;
73632;SDS011;61927;50.080;14.418;2023-03-04T15:32:43;3.05;;;1.70;;
73632;SDS011;61927;50.080;14.418;2023-03-04T15:35:13;6.85;;;1.67;;
73632;SDS011;61927;50.080;14.418;2023-03-04T15:37:40;2.42;;;1.77;;
73632;SDS011;61927;50.080;14.418;2023-03-04T15:40:18;3.30;;;1.85;;
73632;SDS011;61927;50.080;14.418;2023-03-04T15:42:50;6.63;;;1.90;;
73632;SDS011;61927;50.080;14.418;2023-03-04T15:47:52;6.45;;;1.83;;
73632;SDS011;61927;50.080;14.418;2023-03-04T15:50:18;5.50;;;2.92;;
73632;SDS011;61927;50.080;14.418;2023-03-04T15:52:45;7.72;;;2.00;;
73632;SDS011;61927;50.080;14.418;2023-03-04T15:55:17;2.17;;;1.67;;
73632;SDS011;61927;50.080;14.418;2023-03-04T15:57:45;3.55;;;2.42;;
73632;SDS011;61927;50.080;14.418;2023-03-04T16:00:13;1.70;;;1.60;;
73632;SDS011;61927;50.080;14.418;2023-03-04T16:02:40;4.28;;;2.10;;
73632;SDS011;61927;50.080;14.418;2023-03-04T16:05:06;5.57;;;2.10;;
73632;SDS011;61927;50.080;14.418;2023-03-04T16:07:33;8.35;;;2.25;;
73632;SDS011;61927;50.080;14.418;2023-03-04T16:10:00;10.38;;;6.68;;
73632;SDS011;61927;50.080;14.418;2023-03-04T16:12:29;23.42;;;4.10;;
73632;SDS011;61927;50.080;14.418;2023-03-04T16:14:56;5.50;;;2.80;;
73632;SDS011;61927;50.080;14.418;2023-03-04T16:17:22;7.78;;;3.75;;